KBVY/BVY METAR and TAF weather

Enter ICAO airport designator
Station Type Date Time Source
KBVY METAR 2021/07/28 03:03 UTC NOAA

KBVY 280303Z AUTO 36004KT 9SM OVC009 20/19 A2994 RMK AO2 T02000189


Station Type Date Time Source
KBVY Decoded METAR 2021/07/28 03:03 UTC NOAA

BEVERLY MUNICIPAL AIRPORT, MA, United States (KBVY) 42-35N 070-55W 28M
Jul 27, 2021 - 11:03 PM EDT / 2021.07.28 0303 UTC
Wind: from the N (360 degrees) at 5 MPH (4 KT):0
Visibility: 9 mile(s):0
Sky conditions: overcast
Temperature: 68.0 F (20.0 C)
Dew Point: 66.0 F (18.9 C)
Relative Humidity: 93%
Pressure (altimeter): 29.94 in. Hg (1013 hPa)
ob: KBVY 280303Z AUTO 36004KT 9SM OVC009 20/19 A2994 RMK AO2 T02000189
cycle: 3

Station Type Date Time Source
KBVY TAF UTC NOAA

Error!

Example: see airport list